Time;durP1;ratioP1;P1;durP2;ratioP2;P2;SDS_P1;SDS_P2;PMS_P1;PMS_P2;Temp;Humidity;BMP_temperature;BMP_pressure;BME280_temperature;BME280_humidity;BME280_pressure;Samples;Min_cycle;Max_cycle;Signal;HPM_P1;HPM_P2
2022/08/21 00:00:36;;;;;;;30.83;28.35;;;;;;;24.17;100.00;100393.22;4972848;28;20122;-84
2022/08/21 00:03:08;;;;;;;31.25;28.63;;;;;;;23.99;100.00;100395.00;4961588;28;20200;-84
2022/08/21 00:05:42;;;;;;;31.45;28.48;;;;;;;23.77;100.00;100409.25;4964348;28;20468;-84
2022/08/21 00:08:11;;;;;;;30.75;28.17;;;;;;;24.72;100.00;100405.06;4960064;28;20452;-84
2022/08/21 00:10:42;;;;;;;31.90;29.00;;;;;;;24.04;100.00;100410.34;4961986;28;20050;-85
2022/08/21 00:13:17;;;;;;;31.35;28.35;;;;;;;24.31;100.00;100408.69;4958324;28;20058;-82
2022/08/21 00:15:52;;;;;;;30.83;28.15;;;;;;;24.00;100.00;100402.03;4967818;28;20074;-84
2022/08/21 00:18:24;;;;;;;30.48;27.25;;;;;;;23.95;100.00;100404.81;4960476;28;20047;-84
2022/08/21 00:20:53;;;;;;;30.67;28.17;;;;;;;23.76;100.00;100399.53;4964065;28;20058;-86
2022/08/21 00:23:20;;;;;;;32.85;29.95;;;;;;;24.05;100.00;100398.38;4966023;28;20050;-84
2022/08/21 00:25:47;;;;;;;32.58;29.40;;;;;;;23.68;100.00;100380.41;4959958;28;20492;-84
2022/08/21 00:28:16;;;;;;;32.22;29.42;;;;;;;24.03;100.00;100378.13;4961924;28;20054;-85
2022/08/21 00:30:48;;;;;;;32.78;30.15;;;;;;;23.95;100.00;100377.72;4958988;28;20051;-83
2022/08/21 00:33:22;;;;;;;33.50;30.90;;;;;;;23.90;100.00;100372.38;4961292;28;20047;-83
2022/08/21 00:35:50;;;;;;;32.75;29.73;;;;;;;23.65;100.00;100375.59;4962914;28;20093;-84
2022/08/21 00:38:19;;;;;;;32.72;29.70;;;;;;;24.16;100.00;100358.28;4961033;28;20047;-85
2022/08/21 00:40:56;;;;;;;31.38;28.58;;;;;;;24.16;100.00;100358.28;4966633;28;20053;-83
2022/08/21 00:43:28;;;;;;;33.92;31.02;;;;;;;23.82;100.00;100361.47;4964322;28;20051;-83
2022/08/21 00:46:02;;;;;;;31.58;28.45;;;;;;;24.23;100.00;100361.38;4961686;28;20055;-82
2022/08/21 00:48:32;;;;;;;30.85;28.15;;;;;;;24.42;100.00;100367.50;4967040;28;20460;-85
2022/08/21 00:51:07;;;;;;;32.65;29.85;;;;;;;23.95;100.00;100361.44;4960184;28;20141;-84
2022/08/21 00:53:36;;;;;;;33.13;30.63;;;;;;;24.29;100.00;100357.44;4963968;28;20054;-83
2022/08/21 00:56:09;;;;;;;34.40;31.55;;;;;;;23.48;100.00;100351.78;4966422;28;20062;-82
2022/08/21 00:58:41;;;;;;;34.22;31.55;;;;;;;23.59;100.00;100355.13;4965015;28;20055;-85
2022/08/21 01:01:15;;;;;;;37.30;33.95;;;;;;;23.81;100.00;100346.28;4964876;28;20124;-85
2022/08/21 01:06:25;;;;;;;36.50;33.17;;;;;;;23.44;100.00;100348.88;4968248;28;20055;-84
2022/08/21 01:08:51;;;;;;;37.15;33.75;;;;;;;23.70;100.00;100345.72;4968907;28;20061;-83
2022/08/21 01:11:22;;;;;;;36.22;33.25;;;;;;;23.79;100.00;100343.09;4968117;28;20058;-83
2022/08/21 01:13:51;;;;;;;36.97;33.88;;;;;;;23.49;100.00;100337.16;4944240;28;20051;-84
2022/08/21 01:16:23;;;;;;;36.97;33.65;;;;;;;23.16;100.00;100337.22;4946727;28;20070;-84
2022/08/21 01:18:58;;;;;;;35.33;32.15;;;;;;;23.50;100.00;100331.41;4940785;29;20058;-84
2022/08/21 01:21:30;;;;;;;40.28;37.00;;;;;;;23.60;100.00;100318.75;4946881;28;20134;-85
2022/08/21 01:23:58;;;;;;;36.72;33.28;;;;;;;23.44;100.00;100308.22;4949209;28;20092;-83
2022/08/21 01:26:36;;;;;;;35.50;32.15;;;;;;;23.45;100.00;100311.75;4945815;28;20427;-84
2022/08/21 01:29:14;;;;;;;35.47;31.70;;;;;;;23.32;100.00;100305.22;4945073;28;20043;-85
2022/08/21 01:31:44;;;;;;;34.78;31.08;;;;;;;23.31;100.00;100290.88;4945881;28;20058;-85
2022/08/21 01:34:15;;;;;;;34.95;31.42;;;;;;;22.92;100.00;100304.84;4952143;28;20058;-85
2022/08/21 01:36:49;;;;;;;38.90;35.30;;;;;;;23.12;100.00;100292.91;4953567;29;20130;-83
2022/08/21 01:39:16;;;;;;;39.40;35.88;;;;;;;22.90;100.00;100288.09;4945665;28;20047;-85
2022/08/21 01:41:46;;;;;;;38.78;35.67;;;;;;;23.14;100.00;100282.53;4947502;28;20059;-83
2022/08/21 01:44:18;;;;;;;41.38;38.13;;;;;;;23.16;100.00;100283.06;4946626;28;20052;-87
2022/08/21 01:46:49;;;;;;;41.63;38.20;;;;;;;23.01;100.00;100297.69;4943607;28;20110;-85
2022/08/21 01:49:18;;;;;;;39.72;36.13;;;;;;;22.98;100.00;100300.19;4948442;28;20053;-87
2022/08/21 01:51:50;;;;;;;42.78;39.15;;;;;;;22.76;100.00;100292.72;4942482;29;20083;-85
2022/08/21 01:54:45;;;;;;;40.70;37.35;;;;;;;22.95;100.00;100279.94;4940151;28;20059;-85
2022/08/21 01:57:17;;;;;;;40.88;37.33;;;;;;;22.92;100.00;100287.81;4950864;28;20051;-86
2022/08/21 01:59:52;;;;;;;42.15;38.85;;;;;;;23.01;100.00;100284.16;4955725;28;20077;-85
2022/08/21 02:02:20;;;;;;;39.10;35.78;;;;;;;23.07;100.00;100279.44;5096604;23;20074;-85
2022/08/21 02:04:47;;;;;;;41.13;37.85;;;;;;;22.92;100.00;100282.41;4977584;28;20047;-85
2022/08/21 02:07:21;;;;;;;39.72;36.58;;;;;;;22.57;100.00;100279.19;4975911;28;20396;-85
2022/08/21 02:09:55;;;;;;;39.58;36.28;;;;;;;22.45;100.00;100281.56;4975849;28;20058;-85
2022/08/21 02:12:28;;;;;;;45.72;42.13;;;;;;;22.62;100.00;100276.41;4977533;28;20486;-85
2022/08/21 02:15:03;;;;;;;43.35;39.63;;;;;;;22.61;100.00;100264.00;4974091;28;20391;-86
2022/08/21 02:17:38;;;;;;;40.70;37.28;;;;;;;22.45;100.00;100266.16;4976567;28;20066;-84
2022/08/21 02:20:09;;;;;;;41.28;37.45;;;;;;;22.14;100.00;100265.81;4975000;28;20072;-85
2022/08/21 02:22:37;;;;;;;46.90;43.05;;;;;;;22.24;100.00;100271.09;4976519;28;20042;-85
2022/08/21 02:25:06;;;;;;;42.15;38.30;;;;;;;21.99;100.00;100257.91;4976246;28;20082;-85
2022/08/21 02:27:39;;;;;;;49.83;45.75;;;;;;;21.57;100.00;100267.69;4976887;28;20121;-84
2022/08/21 02:30:14;;;;;;;44.33;39.88;;;;;;;21.41;100.00;100261.66;4974744;28;20129;-84
2022/08/21 02:32:49;;;;;;;47.85;41.67;;;;;;;21.56;100.00;100263.38;4975510;28;20054;-83
2022/08/21 02:35:22;;;;;;;42.58;38.88;;;;;;;21.71;100.00;100265.88;4972986;28;20415;-85
2022/08/21 02:37:55;;;;;;;41.22;37.17;;;;;;;21.53;100.00;100255.84;4974570;28;20389;-84
2022/08/21 02:40:33;;;;;;;43.40;39.45;;;;;;;21.49;100.00;100259.13;4975758;28;20051;-83
2022/08/21 02:43:01;;;;;;;43.70;39.53;;;;;;;21.43;100.00;100259.50;4976893;28;20466;-83
2022/08/21 02:45:29;;;;;;;42.85;39.15;;;;;;;21.45;100.00;100254.59;4973621;28;20050;-85
2022/08/21 02:47:58;;;;;;;46.33;41.72;;;;;;;21.56;100.00;100261.47;4975417;28;20042;-83
2022/08/21 02:50:32;;;;;;;45.58;41.80;;;;;;;21.52;100.00;100268.56;4976139;28;20171;-85
2022/08/21 02:53:01;;;;;;;46.28;42.05;;;;;;;21.54;100.00;100266.34;4973976;28;20047;-83
2022/08/21 02:55:35;;;;;;;45.30;40.92;;;;;;;21.42;100.00;100271.38;4973710;28;20106;-84
2022/08/21 02:58:05;;;;;;;42.13;38.35;;;;;;;20.91;100.00;100271.91;4971776;28;20051;-86
2022/08/21 03:00:34;;;;;;;43.47;39.50;;;;;;;21.06;100.00;100263.69;4975166;28;20117;-83
2022/08/21 03:03:06;;;;;;;46.10;42.38;;;;;;;21.43;100.00;100262.19;4974440;28;20066;-85
2022/08/21 03:05:36;;;;;;;48.17;44.22;;;;;;;21.35;100.00;100260.91;4975098;28;20053;-82
2022/08/21 03:08:09;;;;;;;45.80;41.78;;;;;;;21.22;100.00;100262.41;4974262;28;20061;-83
2022/08/21 03:10:36;;;;;;;45.72;41.72;;;;;;;21.34;100.00;100259.28;4973815;28;20043;-85
2022/08/21 03:13:04;;;;;;;48.63;44.53;;;;;;;21.37;100.00;100263.34;4976588;28;20423;-82
2022/08/21 03:15:31;;;;;;;45.95;41.88;;;;;;;21.12;100.00;100256.28;4974879;28;20384;-84
2022/08/21 03:18:00;;;;;;;45.10;40.75;;;;;;;21.12;100.00;100265.22;4975911;28;20125;-83
2022/08/21 03:20:32;;;;;;;44.45;40.13;;;;;;;21.37;100.00;100261.44;4979577;28;20109;-85
2022/08/21 03:22:59;;;;;;;38.67;34.60;;;;;;;21.47;100.00;100260.50;4975133;28;20051;-83
2022/08/21 03:25:41;;;;;;;42.78;38.63;;;;;;;21.47;100.00;100252.41;4972536;28;20057;-83
2022/08/21 03:28:20;;;;;;;39.05;35.55;;;;;;;21.43;100.00;100263.00;4976266;28;20047;-85
2022/08/21 03:30:49;;;;;;;39.28;35.38;;;;;;;21.45;100.00;100260.00;4976193;28;20054;-85
2022/08/21 03:33:19;;;;;;;37.65;34.20;;;;;;;21.43;100.00;100257.59;4976024;28;20055;-83
2022/08/21 03:35:54;;;;;;;36.88;33.40;;;;;;;21.46;100.00;100257.00;4974096;28;20126;-85
2022/08/21 03:38:21;;;;;;;37.08;33.65;;;;;;;21.72;100.00;100259.38;4970521;28;20046;-84
2022/08/21 03:40:53;;;;;;;39.60;36.13;;;;;;;21.72;100.00;100248.56;4974720;28;20047;-86
2022/08/21 03:43:21;;;;;;;41.58;38.03;;;;;;;21.67;100.00;100254.06;4974166;28;20058;-82
2022/08/21 03:45:48;;;;;;;39.78;35.85;;;;;;;21.66;100.00;100252.44;4973479;28;20126;-83
2022/08/21 03:48:20;;;;;;;40.80;37.15;;;;;;;21.62;100.00;100244.09;4975257;28;20133;-82
2022/08/21 03:50:53;;;;;;;38.90;35.55;;;;;;;21.64;100.00;100249.22;4975844;28;20053;-83
2022/08/21 03:53:27;;;;;;;37.30;34.17;;;;;;;20.97;100.00;100251.91;4973163;28;20062;-83
2022/08/21 03:56:08;;;;;;;38.60;35.10;;;;;;;21.11;100.00;100257.41;4976126;28;20050;-84
2022/08/21 03:59:01;;;;;;;40.40;36.25;;;;;;;21.18;100.00;100255.16;4969574;28;20043;-84
2022/08/21 04:01:31;;;;;;;39.60;36.13;;;;;;;21.53;100.00;100259.34;4956791;28;20059;-84
2022/08/21 04:04:08;;;;;;;39.15;35.80;;;;;;;21.35;100.00;100269.00;4972375;28;20047;-84
2022/08/21 04:06:41;;;;;;;41.78;37.85;;;;;;;20.74;100.00;100291.25;4962355;28;20066;-84
2022/08/21 04:09:14;;;;;;;39.17;35.25;;;;;;;20.89;100.00;100315.38;4974990;28;20049;-83
2022/08/21 04:11:53;;;;;;;40.70;36.80;;;;;;;21.53;100.00;100320.69;4974243;28;20058;-83
2022/08/21 04:14:22;;;;;;;38.67;34.90;;;;;;;21.94;100.00;100302.06;4973459;28;20062;-83
2022/08/21 04:16:51;;;;;;;36.72;33.35;;;;;;;22.25;100.00;100310.56;4972263;28;20050;-82
2022/08/21 04:19:19;;;;;;;37.28;33.88;;;;;;;22.10;100.00;100324.28;4974998;28;20142;-85
2022/08/21 04:21:46;;;;;;;37.63;34.30;;;;;;;22.33;100.00;100341.53;4973142;28;20452;-83
2022/08/21 04:24:14;;;;;;;37.15;34.13;;;;;;;22.44;100.00;100332.19;4972904;28;20047;-83
2022/08/21 04:26:48;;;;;;;38.00;34.70;;;;;;;22.66;100.00;100328.84;4974445;28;20059;-84
2022/08/21 04:29:25;;;;;;;37.72;34.63;;;;;;;22.63;100.00;100340.25;4974628;28;20058;-84
2022/08/21 04:32:05;;;;;;;;;;;;;;;;;;;;;
2022/08/21 04:34:34;;;;;;;34.13;31.08;;;;;;;22.93;100.00;100319.19;4958320;28;20069;-85
2022/08/21 04:37:15;;;;;;;;;;;;;;;;;;;;;
2022/08/21 04:39:56;;;;;;;34.33;31.45;;;;;;;23.24;100.00;100338.47;4971603;28;20051;-84
2022/08/21 04:42:29;;;;;;;35.53;32.55;;;;;;;23.26;100.00;100330.81;4974983;28;20093;-83
2022/08/21 04:45:00;;;;;;;32.67;29.77;;;;;;;23.35;100.00;100322.78;4971054;28;20459;-84
2022/08/21 04:47:30;;;;;;;30.98;28.48;;;;;;;23.31;100.00;100309.06;4965451;28;20475;-84
2022/08/21 04:49:59;;;;;;;30.90;28.50;;;;;;;23.08;100.00;100319.75;4974470;28;20129;-85
2022/08/21 04:52:37;;;;;;;45.75;42.28;;;;;;;23.35;100.00;100322.78;4974459;28;20054;-84
2022/08/21 04:55:11;;;;;;;31.88;29.42;;;;;;;23.55;100.00;100322.41;4968794;28;20047;-83
2022/08/21 04:57:44;;;;;;;31.45;28.85;;;;;;;23.60;100.00;100321.47;4963650;28;20074;-84
2022/08/21 05:00:16;;;;;;;31.38;28.58;;;;;;;23.73;100.00;100315.28;4972957;28;20130;-82
2022/08/21 05:02:45;;;;;;;29.45;27.23;;;;;;;23.60;100.00;100318.75;4971252;28;20082;-84
2022/08/21 05:05:18;;;;;;;30.67;27.95;;;;;;;23.89;100.00;100327.41;4973754;28;20134;-85
2022/08/21 05:07:54;;;;;;;30.77;28.15;;;;;;;23.82;100.00;100340.56;4974824;28;20237;-84
2022/08/21 05:10:21;;;;;;;32.13;29.20;;;;;;;24.07;100.00;100344.63;4966673;28;20391;-83
2022/08/21 05:12:54;;;;;;;30.98;28.23;;;;;;;24.29;100.00;100337.63;4974732;28;20385;-85
2022/08/21 05:15:24;;;;;;;29.50;27.30;;;;;;;24.22;100.00;100338.06;4973371;28;20503;-83
2022/08/21 05:17:55;;;;;;;29.23;26.77;;;;;;;24.18;100.00;100342.50;4965418;28;20647;-84
2022/08/21 05:20:24;;;;;;;33.80;30.98;;;;;;;25.49;100.00;100344.16;4965258;28;20076;-84
2022/08/21 05:23:02;;;;;;;;;;;;;;;;;;;;;
2022/08/21 05:25:29;;;;;;;28.85;26.33;;;;;;;25.02;100.00;100339.13;4958573;28;20068;-83
2022/08/21 05:27:58;;;;;;;29.20;26.30;;;;;;;25.44;100.00;100353.25;4974880;28;20078;-83
2022/08/21 05:30:26;;;;;;;29.38;26.98;;;;;;;25.53;100.00;100336.97;4974233;28;20047;-86
2022/08/21 05:32:57;;;;;;;29.15;26.38;;;;;;;25.30;100.00;100342.50;4968964;28;20109;-84
2022/08/21 05:35:27;;;;;;;28.63;26.02;;;;;;;26.17;100.00;100337.28;4973987;28;20058;-82
2022/08/21 05:38:03;;;;;;;28.60;25.90;;;;;;;25.38;100.00;100340.91;4963694;28;20061;-84
2022/08/21 05:40:34;;;;;;;28.65;26.27;;;;;;;25.39;100.00;100339.81;4974247;28;20082;-83
2022/08/21 05:43:02;;;;;;;28.67;25.85;;;;;;;26.11;100.00;100340.47;4973325;28;20054;-85
2022/08/21 05:45:34;;;;;;;30.23;27.30;;;;;;;25.71;100.00;100330.44;4971803;28;20050;-84
2022/08/21 05:48:08;;;;;;;30.47;27.40;;;;;;;25.71;100.00;100319.56;4972294;28;20051;-83
2022/08/21 05:50:39;;;;;;;28.52;25.88;;;;;;;25.83;100.00;100327.16;4974488;28;20050;-84
2022/08/21 05:53:10;;;;;;;29.52;25.50;;;;;;;26.20;100.00;100331.19;4973575;28;20051;-83
2022/08/21 05:55:47;;;;;;;29.35;26.40;;;;;;;26.25;100.00;100341.09;4973472;28;20047;-85
2022/08/21 05:58:15;;;;;;;29.63;26.63;;;;;;;25.55;100.00;100330.09;4969239;28;20115;-83
2022/08/21 06:00:47;;;;;;;28.83;26.15;;;;;;;25.56;100.00;100323.53;4967891;28;20055;-83
2022/08/21 06:03:17;;;;;;;28.20;25.65;;;;;;;26.21;100.00;100330.06;4973952;28;20055;-83
2022/08/21 06:05:48;;;;;;;29.35;26.52;;;;;;;26.48;100.00;100336.31;4974176;28;20537;-82
2022/08/21 06:08:18;;;;;;;28.27;25.88;;;;;;;26.21;100.00;100332.78;4970361;28;20077;-82
2022/08/21 06:10:46;;;;;;;27.70;25.30;;;;;;;26.34;100.00;100331.03;4977449;28;20062;-83
2022/08/21 06:13:14;;;;;;;27.35;24.92;;;;;;;26.44;100.00;100332.59;4977101;28;20047;-83
2022/08/21 06:15:42;;;;;;;26.10;24.00;;;;;;;26.86;100.00;100327.44;4977619;28;20145;-82
2022/08/21 06:18:20;;;;;;;27.80;25.33;;;;;;;26.13;100.00;100336.31;4977071;28;20054;-81
2022/08/21 06:20:47;;;;;;;27.13;24.92;;;;;;;26.53;100.00;100332.63;4977073;28;20484;-84
2022/08/21 06:23:19;;;;;;;28.55;26.17;;;;;;;26.56;100.00;100334.72;4977386;28;20055;-83
2022/08/21 06:26:30;;;;;;;;;;;;;;;;;;;;;
2022/08/21 06:29:00;;;;;;;31.83;29.10;;;;;;;26.35;100.00;100329.09;4960533;28;19926;-83
2022/08/21 06:31:31;;;;;;;30.98;28.30;;;;;;;26.15;100.00;100333.28;4975829;28;20499;-83
2022/08/21 06:34:06;;;;;;;32.28;29.08;;;;;;;26.50;100.00;100336.78;4972241;28;20138;-82
2022/08/21 06:36:42;;;;;;;30.67;28.38;;;;;;;26.77;100.00;100330.19;4977570;28;20453;-86
2022/08/21 06:39:13;;;;;;;32.03;29.17;;;;;;;26.66;100.00;100346.09;4975092;28;20046;-83
2022/08/21 06:41:41;;;;;;;32.10;29.33;;;;;;;26.81;100.00;100341.22;4977466;28;20055;-83
2022/08/21 06:44:10;;;;;;;33.60;30.85;;;;;;;26.51;100.00;100341.13;4973839;28;20098;-84
2022/08/21 06:46:56;;;;;;;30.95;28.23;;;;;;;27.05;100.00;100341.50;4976228;28;20495;-84
2022/08/21 06:49:25;;;;;;;30.73;28.15;;;;;;;27.21;100.00;100333.63;4967543;28;20058;-83
2022/08/21 06:51:54;;;;;;;30.60;27.98;;;;;;;27.54;100.00;100347.41;4977053;28;20487;-84
2022/08/21 06:54:24;;;;;;;29.58;26.73;;;;;;;27.77;100.00;100347.13;4976956;28;20054;-85
2022/08/21 06:56:55;;;;;;;31.20;28.45;;;;;;;26.94;100.00;100356.59;4976584;28;20074;-84
2022/08/21 06:59:29;;;;;;;31.17;28.40;;;;;;;27.80;100.00;100351.94;4977177;28;20085;-83
2022/08/21 07:01:59;;;;;;;31.25;28.50;;;;;;;27.62;100.00;100343.03;4974545;28;20062;-83
2022/08/21 07:04:29;;;;;;;31.20;28.25;;;;;;;27.82;100.00;100344.25;4971428;28;20039;-84
2022/08/21 07:07:08;;;;;;;29.77;27.27;;;;;;;27.40;100.00;100349.56;4971446;28;20491;-86
2022/08/21 07:09:39;;;;;;;31.77;28.95;;;;;;;27.86;100.00;100336.97;4974559;28;21763;-83
2022/08/21 07:12:10;;;;;;;32.85;29.95;;;;;;;27.73;100.00;100344.25;4976840;28;20440;-84
2022/08/21 07:14:42;;;;;;;40.03;35.72;;;;;;;27.05;100.00;100340.69;4962694;28;20054;-83
2022/08/21 07:17:09;;;;;;;80.22;33.00;;;;;;;27.52;100.00;100344.22;4976615;28;20082;-85
2022/08/21 07:19:38;;;;;;;34.35;30.67;;;;;;;27.88;100.00;100337.47;4976157;28;20138;-84
2022/08/21 07:22:07;;;;;;;41.80;28.33;;;;;;;27.36;100.00;100324.88;4974019;28;20097;-84
2022/08/21 07:24:53;;;;;;;30.63;27.90;;;;;;;28.02;100.00;100329.81;4976383;28;20396;-82
2022/08/21 07:27:26;;;;;;;31.05;28.40;;;;;;;28.24;100.00;100328.66;4976250;28;20053;-87
2022/08/21 07:29:56;;;;;;;35.63;32.72;;;;;;;28.27;100.00;100333.47;4974263;28;20062;-83
2022/08/21 07:32:30;;;;;;;35.33;32.55;;;;;;;28.12;100.00;100320.44;4976274;28;20138;-83
2022/08/21 07:35:03;;;;;;;32.45;29.33;;;;;;;28.94;100.00;100322.56;4976587;28;20082;-84
2022/08/21 07:37:30;;;;;;;32.90;30.15;;;;;;;29.15;100.00;100317.81;4974588;28;20051;-83
2022/08/21 07:40:06;;;;;;;33.58;30.73;;;;;;;29.20;100.00;100317.59;4975740;28;20134;-83
2022/08/21 07:42:35;;;;;;;31.60;29.00;;;;;;;29.78;100.00;100313.94;4972974;28;20082;-83
2022/08/21 07:45:02;;;;;;;32.47;30.05;;;;;;;29.87;100.00;100311.88;4967645;28;20472;-83
2022/08/21 07:47:38;;;;;;;31.50;28.92;;;;;;;29.57;100.00;100312.13;4975993;28;20050;-85
2022/08/21 07:50:16;;;;;;;30.83;28.05;;;;;;;29.90;100.00;100308.44;4974462;28;20051;-85
2022/08/21 07:52:44;;;;;;;33.40;30.15;;;;;;;30.05;100.00;100309.66;4974995;28;20081;-84
2022/08/21 07:55:21;;;;;;;31.60;28.98;;;;;;;30.20;100.00;100305.34;4968069;28;20043;-86
2022/08/21 07:58:10;;;;;;;32.63;29.80;;;;;;;30.09;100.00;100303.13;4964192;28;20047;-86
2022/08/21 08:00:43;;;;;;;33.60;30.98;;;;;;;29.92;100.00;100302.63;4971267;28;20047;-88
2022/08/21 08:03:12;;;;;;;31.02;28.50;;;;;;;30.25;100.00;100294.19;4974564;28;20125;-86
2022/08/21 08:05:48;;;;;;;30.50;28.10;;;;;;;30.48;100.00;100288.97;4973898;28;20047;-84
2022/08/21 08:08:17;;;;;;;32.88;30.13;;;;;;;30.21;100.00;100305.06;4971464;28;20055;-80
2022/08/21 08:10:44;;;;;;;33.30;30.42;;;;;;;30.19;100.00;100290.88;4968438;28;20054;-81
2022/08/21 08:13:11;;;;;;;32.80;29.98;;;;;;;30.04;100.00;100297.88;4973243;28;20080;-82
2022/08/21 08:15:38;;;;;;;34.67;31.70;;;;;;;29.41;100.00;100290.16;4972586;28;20047;-79
2022/08/21 08:18:05;;;;;;;33.72;30.88;;;;;;;28.87;100.00;100282.13;4973676;28;20502;-80
2022/08/21 08:20:32;;;;;;;32.97;30.02;;;;;;;29.53;100.00;100286.56;4973200;28;20043;-79
2022/08/21 08:23:01;;;;;;;31.00;28.25;;;;;;;29.62;100.00;100276.34;4972441;28;20061;-80
2022/08/21 08:25:28;;;;;;;31.15;28.40;;;;;;;29.92;100.00;100272.50;4972619;28;20047;-80
2022/08/21 08:28:09;;;;;;;30.10;27.70;;;;;;;29.65;100.00;100270.19;4971891;28;20051;-85
2022/08/21 08:30:36;;;;;;;31.95;29.20;;;;;;;28.99;100.00;100276.66;4965832;28;20078;-79
2022/08/21 08:33:03;;;;;;;31.92;29.27;;;;;;;28.59;100.00;100276.47;4970884;28;20078;-78
2022/08/21 08:35:29;;;;;;;33.13;29.88;;;;;;;28.75;100.00;100265.72;4969876;28;20042;-79
2022/08/21 08:37:56;;;;;;;31.15;28.27;;;;;;;30.19;100.00;100265.44;4969533;28;20051;-82
2022/08/21 08:40:33;;;;;;;31.88;29.23;;;;;;;29.74;100.00;100267.28;4972175;28;20419;-84
2022/08/21 08:43:00;;;;;;;32.47;29.67;;;;;;;29.78;100.00;100265.47;4971027;28;20090;-80
2022/08/21 08:45:29;;;;;;;32.08;29.05;;;;;;;29.30;100.00;100266.34;4973587;28;20463;-82
2022/08/21 08:48:01;;;;;;;32.28;29.70;;;;;;;30.08;100.00;100267.91;4967823;28;20058;-83
2022/08/21 08:50:31;;;;;;;;;;;;;;;30.97;100.00;100253.03;4972444;28;20074;-85
2022/08/21 08:53:03;;;;;;;31.27;28.77;;;;;;;29.26;100.00;100254.47;4971715;28;19926;-82
2022/08/21 08:55:36;;;;;;;30.77;28.27;;;;;;;30.60;100.00;100255.22;4971947;28;20061;-83
2022/08/21 08:58:04;;;;;;;30.25;27.58;;;;;;;31.76;98.72;100244.63;4970813;28;20051;-83
2022/08/21 09:00:32;;;;;;;30.67;27.98;;;;;;;32.07;94.30;100237.44;4972577;28;20043;-81
2022/08/21 09:03:02;;;;;;;31.38;28.27;;;;;;;32.54;97.53;100239.91;4970966;28;20061;-82
2022/08/21 09:05:36;;;;;;;30.58;27.70;;;;;;;32.11;83.74;100239.09;4968975;28;20117;-84
2022/08/21 09:08:26;;;;;;;29.98;27.27;;;;;;;31.52;92.41;100239.41;4972529;28;20059;-80
2022/08/21 09:11:04;;;;;;;30.33;27.70;;;;;;;32.42;86.72;100234.56;4964929;28;20046;-80
2022/08/21 09:13:43;;;;;;;30.58;27.92;;;;;;;32.43;75.82;100225.16;4971421;28;20492;-80
2022/08/21 09:16:19;;;;;;;32.67;29.23;;;;;;;32.06;79.31;100224.88;4973600;28;20047;-80
2022/08/21 09:18:55;;;;;;;30.30;27.60;;;;;;;32.49;73.34;100228.41;4972573;28;20059;-81
2022/08/21 09:21:29;;;;;;;30.48;27.75;;;;;;;32.39;73.28;100225.09;4970035;28;20062;-84
2022/08/21 09:24:28;;;;;;;31.63;28.83;;;;;;;32.44;71.97;100217.69;4970894;28;20495;-83
2022/08/21 09:27:04;;;;;;;31.00;28.17;;;;;;;31.14;82.94;100217.03;4972862;28;20113;-80
2022/08/21 09:29:34;;;;;;;32.88;29.92;;;;;;;31.56;82.99;100210.09;4968966;28;20467;-82
2022/08/21 09:32:01;;;;;;;32.13;29.45;;;;;;;32.00;81.46;100207.88;4975879;28;20046;-80
2022/08/21 09:34:31;;;;;;;31.17;28.50;;;;;;;31.00;81.72;100202.97;4977422;28;20480;-80
2022/08/21 09:36:58;;;;;;;33.05;29.80;;;;;;;30.62;96.69;100209.06;4969838;28;20484;-79
2022/08/21 09:39:27;;;;;;;31.73;28.80;;;;;;;30.72;96.43;100208.56;4974685;28;20411;-84
2022/08/21 09:42:06;;;;;;;33.28;30.10;;;;;;;30.94;95.73;100196.97;4973745;28;20046;-81
2022/08/21 09:47:10;;;;;;;29.92;27.48;;;;;;;31.37;91.64;100199.91;5586695;23;20465;-85
2022/08/21 09:49:44;;;;;;;29.42;26.48;;;;;;;30.38;100.00;100208.09;4995299;28;20054;-84
2022/08/21 09:52:22;;;;;;;31.90;29.08;;;;;;;30.52;100.00;100199.44;4992318;28;20050;-80
2022/08/21 09:54:54;;;;;;;30.63;27.98;;;;;;;30.31;100.00;100191.47;4996081;28;20428;-80
2022/08/21 09:57:42;;;;;;;30.75;28.25;;;;;;;30.92;96.54;100185.56;4995387;28;20043;-79
2022/08/21 10:00:21;;;;;;;31.27;28.52;;;;;;;30.84;94.87;100191.25;4992129;28;20042;-84
2022/08/21 10:02:49;;;;;;;31.88;29.08;;;;;;;31.35;91.10;100181.06;4994151;28;20050;-80
2022/08/21 10:05:25;;;;;;;32.47;29.42;;;;;;;30.94;93.46;100176.97;4989300;28;20479;-83
2022/08/21 10:07:52;;;;;;;31.98;29.02;;;;;;;30.80;99.42;100180.16;4994911;28;20046;-82
2022/08/21 10:10:23;;;;;;;30.95;28.40;;;;;;;30.85;99.31;100177.16;4994184;28;20061;-85
2022/08/21 10:12:58;;;;;;;29.63;27.05;;;;;;;30.71;98.34;100171.31;4992769;28;20043;-82
2022/08/21 10:15:45;;;;;;;30.55;27.90;;;;;;;31.46;87.65;100165.63;4994374;28;20042;-82
2022/08/21 10:18:21;;;;;;;31.58;28.45;;;;;;;31.54;94.49;100163.81;4995391;28;20050;-82
2022/08/21 10:20:57;;;;;;;31.67;28.75;;;;;;;31.48;91.21;100159.78;4993966;28;20053;-85
2022/08/21 10:23:45;;;;;;;31.77;28.75;;;;;;;31.80;86.25;100157.69;4990644;28;20062;-84
2022/08/21 10:26:22;;;;;;;31.77;29.13;;;;;;;32.22;82.47;100162.38;4984387;28;20051;-81
2022/08/21 10:32:24;;;;;;;31.20;28.30;;;;;;;32.89;69.29;100147.38;4941007;28;20086;-83
2022/08/21 10:35:22;;;;;;;31.55;28.45;;;;;;;33.08;73.30;100146.50;4996580;28;20475;-86
2022/08/21 10:38:17;;;;;;;31.92;29.10;;;;;;;33.75;73.26;100146.56;4961112;28;20146;-83
2022/08/21 10:40:56;;;;;;;32.50;29.75;;;;;;;33.91;68.49;100147.13;4982060;28;20057;-85
2022/08/21 10:43:38;;;;;;;32.40;29.73;;;;;;;34.33;67.16;100142.44;4991354;28;20055;-82
2022/08/21 10:46:18;;;;;;;35.97;33.28;;;;;;;34.75;59.64;100132.91;4992719;28;20050;-84
2022/08/21 10:48:52;;;;;;;35.30;32.10;;;;;;;34.72;57.23;100128.19;4994845;28;20046;-84
2022/08/21 10:51:29;;;;;;;34.10;30.90;;;;;;;33.89;64.48;100126.63;4991830;28;20054;-85
2022/08/21 10:54:10;;;;;;;36.78;33.78;;;;;;;33.35;68.64;100128.78;4991836;28;20051;-83
2022/08/21 10:56:44;;;;;;;30.20;27.45;;;;;;;32.80;61.71;100123.69;4990193;28;20491;-81
2022/08/21 10:59:26;;;;;;;31.95;28.85;;;;;;;33.77;61.33;100116.69;4992591;28;20104;-82
2022/08/21 11:02:13;;;;;;;31.55;28.92;;;;;;;34.47;55.95;100114.19;4994777;28;20051;-82
2022/08/21 11:04:51;;;;;;;30.98;28.20;;;;;;;35.70;50.73;100098.66;4990172;28;20046;-82
2022/08/21 11:07:28;;;;;;;31.40;28.50;;;;;;;34.95;54.11;100105.84;4992229;28;20050;-85
2022/08/21 11:10:19;;;;;;;36.17;32.50;;;;;;;34.65;58.15;100102.13;4991189;28;20077;-82
2022/08/21 11:12:55;;;;;;;34.03;31.10;;;;;;;34.69;52.08;100095.84;4991727;28;20133;-82
2022/08/21 11:15:31;;;;;;;32.70;29.73;;;;;;;34.87;51.43;100091.22;4992556;28;20742;-83
2022/08/21 11:18:19;;;;;;;31.85;28.80;;;;;;;35.40;49.09;100081.59;4994471;28;20054;-84
2022/08/21 11:21:02;;;;;;;31.42;28.90;;;;;;;35.55;50.49;100075.78;4990517;28;20061;-84
2022/08/21 11:23:40;;;;;;;30.67;27.98;;;;;;;35.37;48.14;100074.09;4990100;28;20546;-83
2022/08/21 11:26:15;;;;;;;30.95;28.10;;;;;;;35.59;46.66;100069.47;4990763;28;20054;-85
2022/08/21 11:28:49;;;;;;;31.58;28.67;;;;;;;35.92;48.50;100062.81;4988805;28;20153;-85
2022/08/21 11:31:39;;;;;;;31.52;28.77;;;;;;;32.79;47.99;100063.56;4990026;28;20105;-82
2022/08/21 11:34:21;;;;;;;32.25;29.50;;;;;;;33.61;51.90;100055.56;4993747;28;20068;-86
2022/08/21 11:36:58;;;;;;;36.25;33.28;;;;;;;35.24;47.27;100044.09;4985135;28;20046;-85
2022/08/21 11:39:34;;;;;;;33.50;30.42;;;;;;;35.57;43.64;100044.22;4993466;28;20050;-84
2022/08/21 11:42:16;;;;;;;32.35;29.63;;;;;;;35.46;43.60;100039.44;4994421;28;20478;-83
2022/08/21 11:44:50;;;;;;;;;;;;;;;35.50;43.17;100031.97;4992388;28;20043;-81